Time,TemperatureF,DewpointF,PressureIn,WindDirection,WindDirectionDegrees,WindSpeedMPH,WindSpeedGustMPH,Humidity,HourlyPrecipIn,Conditions,Clouds,dailyrainin,SolarRadiationWatts/m^2,SoftwareType,DateUTC
2013-05-26 00:01:00,50.0,49.0,-100.00,NE,49,3.0,7.0,96,0.00,,,0.20,0.000000,,2013-05-26 07:01:00,
2013-05-26 00:11:00,50.0,49.0,-100.00,NE,49,3.0,7.0,96,0.00,,,0.20,0.000000,,2013-05-26 07:11:00,
2013-05-26 00:21:00,50.0,49.0,-100.00,NE,49,3.0,7.0,96,0.00,,,0.20,0.000000,,2013-05-26 07:21:00,
2013-05-26 00:31:00,50.0,49.0,-100.00,NE,49,3.0,7.0,96,0.00,,,0.20,0.000000,,2013-05-26 07:31:00,
2013-05-26 00:52:00,49.0,48.0,-100.00,NE,52,0.0,4.0,98,0.00,,,0.20,0.000000,,2013-05-26 07:52:00,
2013-05-26 01:01:00,49.0,48.0,-100.00,NE,52,0.0,4.0,98,0.00,,,0.20,0.000000,,2013-05-26 08:01:00,
2013-05-26 01:11:00,49.0,48.0,-100.00,NE,52,0.0,4.0,98,0.00,,,0.20,0.000000,,2013-05-26 08:11:00,
2013-05-26 01:21:00,49.0,48.0,-100.00,NE,52,0.0,4.0,98,0.00,,,0.20,0.000000,,2013-05-26 08:21:00,
2013-05-26 01:31:00,49.0,48.0,-100.00,NE,52,0.0,4.0,98,0.00,,,0.20,0.000000,,2013-05-26 08:31:00,
2013-05-26 01:33:00,49.0,49.0,-100.00,NE,35,0.0,2.0,99,0.00,,,0.20,0.000000,,2013-05-26 08:33:00,
2013-05-26 01:53:00,49.0,49.0,-100.00,NE,35,0.0,2.0,99,0.00,,,0.20,0.000000,,2013-05-26 08:53:00,
2013-05-26 02:01:00,49.0,49.0,-100.00,NE,35,0.0,2.0,99,0.00,,,0.20,0.000000,,2013-05-26 09:01:00,
2013-05-26 02:11:00,49.0,49.0,-100.00,NE,35,0.0,2.0,99,0.00,,,0.20,0.000000,,2013-05-26 09:11:00,
2013-05-26 02:21:00,49.0,49.0,-100.00,NE,35,0.0,2.0,99,0.00,,,0.20,0.000000,,2013-05-26 09:21:00,
2013-05-26 02:53:00,49.0,48.0,-100.00,NE,37,1.0,3.0,98,0.00,,,0.20,0.000000,,2013-05-26 09:53:00,
2013-05-26 03:02:00,49.0,48.0,-100.00,NE,37,1.0,3.0,98,0.00,,,0.20,0.000000,,2013-05-26 10:02:00,
2013-05-26 03:12:00,49.0,48.0,-100.00,NE,37,1.0,3.0,98,0.00,,,0.20,0.000000,,2013-05-26 10:12:00,
2013-05-26 03:22:00,49.0,48.0,-100.00,NE,37,1.0,3.0,98,0.00,,,0.20,0.000000,,2013-05-26 10:22:00,
2013-05-26 03:32:00,49.0,48.0,-100.00,NE,37,1.0,3.0,98,0.00,,,0.20,0.000000,,2013-05-26 10:32:00,
2013-05-26 03:52:00,48.0,47.0,-100.00,North,0,0.0,3.0,98,0.00,,,0.20,0.000000,,2013-05-26 10:52:00,
2013-05-26 04:03:00,48.0,47.0,-100.00,North,0,0.0,3.0,98,0.00,,,0.20,0.000000,,2013-05-26 11:03:00,
2013-05-26 04:11:00,48.0,47.0,-100.00,North,0,0.0,3.0,98,0.00,,,0.20,0.000000,,2013-05-26 11:11:00,
2013-05-26 04:22:00,48.0,47.0,-100.00,North,0,0.0,3.0,98,0.00,,,0.20,0.000000,,2013-05-26 11:22:00,
2013-05-26 04:32:00,48.0,47.0,-100.00,North,0,0.0,3.0,98,0.00,,,0.20,0.000000,,2013-05-26 11:32:00,
2013-05-26 04:52:00,49.0,48.0,-100.00,East,84,1.0,4.0,98,0.01,,,0.21,0.000000,,2013-05-26 11:52:00,
2013-05-26 05:01:00,49.0,48.0,-100.00,East,84,1.0,4.0,98,0.01,,,0.21,0.000000,,2013-05-26 12:01:00,
2013-05-26 05:11:00,49.0,48.0,-100.00,East,84,1.0,4.0,98,0.01,,,0.21,0.000000,,2013-05-26 12:11:00,
2013-05-26 05:21:00,49.0,48.0,-100.00,East,84,1.0,4.0,98,0.01,,,0.21,0.000000,,2013-05-26 12:21:00,
2013-05-26 05:31:00,49.0,48.0,-100.00,East,84,1.0,4.0,98,0.01,,,0.21,0.000000,,2013-05-26 12:31:00,
2013-05-26 05:52:00,48.0,47.0,-100.00,North,349,0.0,4.0,97,0.00,,,-99.99,1.000000,,2013-05-26 12:52:00,
2013-05-26 06:02:00,48.0,47.0,-100.00,North,349,0.0,4.0,97,0.00,,,-99.99,1.000000,,2013-05-26 13:02:00,
2013-05-26 06:11:00,48.0,47.0,-100.00,North,349,0.0,4.0,97,0.00,,,-99.99,1.000000,,2013-05-26 13:11:00,
2013-05-26 06:21:00,48.0,47.0,-100.00,North,349,0.0,4.0,97,0.00,,,-99.99,1.000000,,2013-05-26 13:21:00,
2013-05-26 06:32:00,48.0,47.0,-100.00,North,349,0.0,4.0,97,0.00,,,-99.99,1.000000,,2013-05-26 13:32:00,
2013-05-26 06:52:00,49.0,48.0,-100.00,North,11,0.0,3.0,98,0.00,,,0.18,11.000000,,2013-05-26 13:52:00,
2013-05-26 07:02:00,49.0,48.0,-100.00,North,11,0.0,3.0,98,0.00,,,0.18,11.000000,,2013-05-26 14:02:00,
2013-05-26 07:11:00,49.0,48.0,-100.00,North,11,0.0,3.0,98,0.00,,,0.18,11.000000,,2013-05-26 14:11:00,
2013-05-26 07:21:00,49.0,48.0,-100.00,North,11,0.0,3.0,98,0.00,,,0.18,11.000000,,2013-05-26 14:21:00,
2013-05-26 07:32:00,49.0,48.0,-100.00,North,11,0.0,3.0,98,0.00,,,0.18,11.000000,,2013-05-26 14:32:00,
2013-05-26 07:33:00,50.0,49.0,-100.00,NE,50,0.0,2.0,97,0.00,,,0.16,59.000000,,2013-05-26 14:33:00,
2013-05-26 07:52:00,50.0,49.0,-100.00,NE,50,0.0,2.0,97,0.00,,,0.16,59.000000,,2013-05-26 14:52:00,
2013-05-26 08:01:00,50.0,49.0,-100.00,NE,50,0.0,2.0,97,0.00,,,0.16,59.000000,,2013-05-26 15:01:00,
2013-05-26 08:12:00,50.0,49.0,-100.00,NE,50,0.0,2.0,97,0.00,,,0.16,59.000000,,2013-05-26 15:12:00,
2013-05-26 08:22:00,50.0,49.0,-100.00,NE,50,0.0,2.0,97,0.00,,,0.16,59.000000,,2013-05-26 15:22:00,
2013-05-26 08:33:00,52.0,49.0,-100.00,ENE,70,2.0,4.0,91,0.00,,,0.15,135.000000,,2013-05-26 15:33:00,
2013-05-26 08:53:00,52.0,49.0,-100.00,ENE,70,2.0,4.0,91,0.00,,,0.15,135.000000,,2013-05-26 15:53:00,
2013-05-26 09:03:00,52.0,49.0,-100.00,ENE,70,2.0,4.0,91,0.00,,,0.15,135.000000,,2013-05-26 16:03:00,
2013-05-26 09:12:00,52.0,49.0,-100.00,ENE,70,2.0,4.0,91,0.00,,,0.15,135.000000,,2013-05-26 16:12:00,
2013-05-26 09:23:00,52.0,49.0,-100.00,ENE,70,2.0,4.0,91,0.00,,,0.15,135.000000,,2013-05-26 16:23:00,
2013-05-26 09:53:00,53.0,50.0,-100.00,ENE,61,2.0,5.0,91,0.00,,,0.15,117.000000,,2013-05-26 16:53:00,
2013-05-26 10:02:00,53.0,50.0,-100.00,ENE,61,2.0,5.0,91,0.00,,,0.15,117.000000,,2013-05-26 17:02:00,
2013-05-26 10:11:00,53.0,50.0,-100.00,ENE,61,2.0,5.0,91,0.00,,,0.15,117.000000,,2013-05-26 17:11:00,
2013-05-26 10:22:00,53.0,50.0,-100.00,ENE,61,2.0,5.0,91,0.00,,,0.15,117.000000,,2013-05-26 17:22:00,
2013-05-26 10:32:00,53.0,50.0,-100.00,ENE,61,2.0,5.0,91,0.00,,,0.15,117.000000,,2013-05-26 17:32:00,
2013-05-26 10:52:00,54.0,51.0,-100.00,NW,317,1.0,5.0,89,0.00,,,0.15,169.000000,,2013-05-26 17:52:00,
2013-05-26 11:01:00,54.0,51.0,-100.00,NW,317,1.0,5.0,89,0.00,,,0.15,169.000000,,2013-05-26 18:01:00,
2013-05-26 11:12:00,54.0,51.0,-100.00,NW,317,1.0,5.0,89,0.00,,,0.15,169.000000,,2013-05-26 18:12:00,
2013-05-26 11:21:00,54.0,51.0,-100.00,NW,317,1.0,5.0,89,0.00,,,0.15,169.000000,,2013-05-26 18:21:00,
2013-05-26 11:31:00,54.0,51.0,-100.00,NW,317,1.0,5.0,89,0.00,,,0.15,169.000000,,2013-05-26 18:31:00,
2013-05-26 11:52:00,55.0,52.0,-100.00,NW,307,0.0,5.0,88,0.00,,,0.15,174.000000,,2013-05-26 18:52:00,
2013-05-26 12:01:00,55.0,52.0,-100.00,NW,307,0.0,5.0,88,0.00,,,0.15,174.000000,,2013-05-26 19:01:00,
2013-05-26 12:11:00,55.0,52.0,-100.00,NW,307,0.0,5.0,88,0.00,,,0.15,174.000000,,2013-05-26 19:11:00,
2013-05-26 12:21:00,55.0,52.0,-100.00,NW,307,0.0,5.0,88,0.00,,,0.15,174.000000,,2013-05-26 19:21:00,
2013-05-26 12:31:00,55.0,52.0,-100.00,NW,307,0.0,5.0,88,0.00,,,0.15,174.000000,,2013-05-26 19:31:00,
2013-05-26 12:52:00,56.0,53.0,-100.00,WNW,282,0.0,3.0,89,0.00,,,0.12,126.000000,,2013-05-26 19:52:00,
2013-05-26 13:02:00,56.0,53.0,-100.00,WNW,282,0.0,3.0,89,0.00,,,0.12,126.000000,,2013-05-26 20:02:00,
2013-05-26 13:11:00,56.0,53.0,-100.00,WNW,282,0.0,3.0,89,0.00,,,0.12,126.000000,,2013-05-26 20:11:00,
2013-05-26 13:21:00,56.0,53.0,-100.00,WNW,282,0.0,3.0,89,0.00,,,0.12,126.000000,,2013-05-26 20:21:00,
2013-05-26 13:32:00,56.0,53.0,-100.00,WNW,282,0.0,3.0,89,0.00,,,0.12,126.000000,,2013-05-26 20:32:00,
2013-05-26 13:33:00,55.0,53.0,-100.00,WSW,256,2.0,5.0,93,0.07,,,0.19,229.000000,,2013-05-26 20:33:00,
2013-05-26 13:52:00,55.0,53.0,-100.00,WSW,256,2.0,5.0,93,0.07,,,0.19,229.000000,,2013-05-26 20:52:00,
2013-05-26 14:01:00,55.0,53.0,-100.00,WSW,256,2.0,5.0,93,0.07,,,0.19,229.000000,,2013-05-26 21:01:00,
2013-05-26 14:11:00,55.0,53.0,-100.00,WSW,256,2.0,5.0,93,0.07,,,0.19,229.000000,,2013-05-26 21:11:00,
2013-05-26 14:22:00,55.0,53.0,-100.00,WSW,256,2.0,5.0,93,0.07,,,0.19,229.000000,,2013-05-26 21:22:00,
2013-05-26 14:33:00,55.0,53.0,-100.00,South,189,4.0,12.0,93,0.04,,,0.21,192.000000,,2013-05-26 21:33:00,
2013-05-26 14:53:00,55.0,53.0,-100.00,South,189,4.0,12.0,93,0.04,,,0.21,192.000000,,2013-05-26 21:53:00,
2013-05-26 15:02:00,55.0,53.0,-100.00,South,189,4.0,12.0,93,0.04,,,0.21,192.000000,,2013-05-26 22:02:00,
2013-05-26 15:12:00,55.0,53.0,-100.00,South,189,4.0,12.0,93,0.04,,,0.21,192.000000,,2013-05-26 22:12:00,
2013-05-26 15:23:00,55.0,53.0,-100.00,South,189,4.0,12.0,93,0.04,,,0.21,192.000000,,2013-05-26 22:23:00,
2013-05-26 15:53:00,58.0,53.0,-100.00,South,178,3.0,8.0,83,0.00,,,0.20,370.000000,,2013-05-26 22:53:00,
2013-05-26 16:02:00,58.0,53.0,-100.00,South,178,3.0,8.0,83,0.00,,,0.20,370.000000,,2013-05-26 23:02:00,
2013-05-26 16:11:00,58.0,53.0,-100.00,South,178,3.0,8.0,83,0.00,,,0.20,370.000000,,2013-05-26 23:11:00,
2013-05-26 16:22:00,58.0,53.0,-100.00,South,178,3.0,8.0,83,0.00,,,0.20,370.000000,,2013-05-26 23:22:00,
2013-05-26 16:32:00,58.0,53.0,-100.00,South,178,3.0,8.0,83,0.00,,,0.20,370.000000,,2013-05-26 23:32:00,
2013-05-26 16:52:00,58.0,54.0,-100.00,SW,233,1.0,9.0,85,0.00,,,-99.99,306.000000,,2013-05-26 23:52:00,
2013-05-26 17:02:00,58.0,54.0,-100.00,SW,233,1.0,9.0,85,0.00,,,-99.99,306.000000,,2013-05-27 00:02:00,
2013-05-26 17:11:00,58.0,54.0,-100.00,SW,233,1.0,9.0,85,0.00,,,-99.99,306.000000,,2013-05-27 00:11:00,
2013-05-26 17:21:00,58.0,54.0,-100.00,SW,233,1.0,9.0,85,0.00,,,-99.99,306.000000,,2013-05-27 00:21:00,
2013-05-26 17:31:00,58.0,54.0,-100.00,SW,233,1.0,9.0,85,0.00,,,-99.99,306.000000,,2013-05-27 00:31:00,
2013-05-26 17:52:00,56.0,54.0,-100.00,SSE,166,3.0,8.0,93,0.08,,,0.25,210.000000,,2013-05-27 00:52:00,
2013-05-26 18:01:00,56.0,54.0,-100.00,SSE,166,3.0,8.0,93,0.08,,,0.25,210.000000,,2013-05-27 01:01:00,
2013-05-26 18:11:00,56.0,54.0,-100.00,SSE,166,3.0,8.0,93,0.08,,,0.25,210.000000,,2013-05-27 01:11:00,
2013-05-26 18:22:00,56.0,54.0,-100.00,SSE,166,3.0,8.0,93,0.08,,,0.25,210.000000,,2013-05-27 01:22:00,
2013-05-26 18:31:00,56.0,54.0,-100.00,SSE,166,3.0,8.0,93,0.08,,,0.25,210.000000,,2013-05-27 01:31:00,
2013-05-26 18:52:00,56.0,53.0,-100.00,SSE,158,3.0,9.0,91,0.01,,,0.22,227.000000,,2013-05-27 01:52:00,
2013-05-26 19:01:00,56.0,53.0,-100.00,SSE,158,3.0,9.0,91,0.01,,,0.22,227.000000,,2013-05-27 02:01:00,
2013-05-26 19:11:00,56.0,53.0,-100.00,SSE,158,3.0,9.0,91,0.01,,,0.22,227.000000,,2013-05-27 02:11:00,
2013-05-26 19:21:00,56.0,53.0,-100.00,SSE,158,3.0,9.0,91,0.01,,,0.22,227.000000,,2013-05-27 02:21:00,
2013-05-26 19:31:00,56.0,53.0,-100.00,SSE,158,3.0,9.0,91,0.01,,,0.22,227.000000,,2013-05-27 02:31:00,
2013-05-26 19:33:00,54.0,52.0,-100.00,South,181,4.0,10.0,93,0.02,,,0.23,83.000000,,2013-05-27 02:33:00,
2013-05-26 19:52:00,54.0,52.0,-100.00,South,181,4.0,10.0,93,0.02,,,0.23,83.000000,,2013-05-27 02:52:00,
2013-05-26 20:02:00,54.0,52.0,-100.00,South,181,4.0,10.0,93,0.02,,,0.23,83.000000,,2013-05-27 03:02:00,
2013-05-26 20:11:00,54.0,52.0,-100.00,South,181,4.0,10.0,93,0.02,,,0.23,83.000000,,2013-05-27 03:11:00,
2013-05-26 20:21:00,54.0,52.0,-100.00,South,181,4.0,10.0,93,0.02,,,0.23,83.000000,,2013-05-27 03:21:00,
2013-05-26 20:33:00,53.0,51.0,-100.00,South,176,3.0,9.0,94,0.00,,,0.23,27.000000,,2013-05-27 03:33:00,
2013-05-26 20:53:00,53.0,51.0,-100.00,South,176,3.0,9.0,94,0.00,,,0.23,27.000000,,2013-05-27 03:53:00,
2013-05-26 21:02:00,53.0,51.0,-100.00,South,176,3.0,9.0,94,0.00,,,0.23,27.000000,,2013-05-27 04:02:00,
2013-05-26 21:12:00,53.0,51.0,-100.00,South,176,3.0,9.0,94,0.00,,,0.23,27.000000,,2013-05-27 04:12:00,
2013-05-26 21:22:00,53.0,51.0,-100.00,South,176,3.0,9.0,94,0.00,,,0.23,27.000000,,2013-05-27 04:22:00,
2013-05-26 21:52:00,52.0,51.0,-100.00,South,171,3.0,9.0,95,0.00,,,0.23,4.000000,,2013-05-27 04:52:00,
2013-05-26 22:02:00,52.0,51.0,-100.00,South,171,3.0,9.0,95,0.00,,,0.23,4.000000,,2013-05-27 05:02:00,
2013-05-26 22:12:00,52.0,51.0,-100.00,South,171,3.0,9.0,95,0.00,,,0.23,4.000000,,2013-05-27 05:12:00,
2013-05-26 22:22:00,52.0,51.0,-100.00,South,171,3.0,9.0,95,0.00,,,0.23,4.000000,,2013-05-27 05:22:00,
2013-05-26 22:32:00,52.0,51.0,-100.00,South,171,3.0,9.0,95,0.00,,,0.23,4.000000,,2013-05-27 05:32:00,
2013-05-26 22:52:00,51.0,50.0,-100.00,SSE,168,3.0,8.0,95,0.01,,,0.24,0.000000,,2013-05-27 05:52:00,
2013-05-26 23:01:00,51.0,50.0,-100.00,SSE,168,3.0,8.0,95,0.01,,,0.24,0.000000,,2013-05-27 06:01:00,
2013-05-26 23:11:00,51.0,50.0,-100.00,SSE,168,3.0,8.0,95,0.01,,,0.24,0.000000,,2013-05-27 06:11:00,
2013-05-26 23:21:00,51.0,50.0,-100.00,SSE,168,3.0,8.0,95,0.01,,,0.24,0.000000,,2013-05-27 06:21:00,
2013-05-26 23:31:00,51.0,50.0,-100.00,SSE,168,3.0,8.0,95,0.01,,,0.24,0.000000,,2013-05-27 06:31:00,
2013-05-26 23:52:00,51.0,49.0,-100.00,SSE,155,3.0,9.0,94,0.01,,,0.25,0.000000,,2013-05-27 06:52:00,